sensor_id;sensor_type;location;lat;lon;timestamp;P1;durP1;ratioP1;P2;durP2;ratioP2
64959;SDS011;51487;52.266;10.542;2022-07-06T00:02:02;4.57;;;1.33;;
64959;SDS011;51487;52.266;10.542;2022-07-06T00:04:28;4.65;;;1.50;;
64959;SDS011;51487;52.266;10.542;2022-07-06T00:06:54;5.15;;;1.45;;
64959;SDS011;51487;52.266;10.542;2022-07-06T00:09:19;4.03;;;1.58;;
64959;SDS011;51487;52.266;10.542;2022-07-06T00:11:45;6.68;;;1.55;;
64959;SDS011;51487;52.266;10.542;2022-07-06T00:14:11;4.60;;;1.67;;
64959;SDS011;51487;52.266;10.542;2022-07-06T00:16:37;3.83;;;1.42;;
64959;SDS011;51487;52.266;10.542;2022-07-06T00:19:03;3.50;;;1.35;;
64959;SDS011;51487;52.266;10.542;2022-07-06T00:21:29;2.88;;;1.30;;
64959;SDS011;51487;52.266;10.542;2022-07-06T00:23:54;6.65;;;1.60;;
64959;SDS011;51487;52.266;10.542;2022-07-06T00:26:20;2.88;;;1.40;;
64959;SDS011;51487;52.266;10.542;2022-07-06T00:28:45;6.90;;;1.60;;
64959;SDS011;51487;52.266;10.542;2022-07-06T00:31:11;7.30;;;1.48;;
64959;SDS011;51487;52.266;10.542;2022-07-06T00:33:37;4.63;;;1.40;;
64959;SDS011;51487;52.266;10.542;2022-07-06T00:36:03;4.72;;;1.48;;
64959;SDS011;51487;52.266;10.542;2022-07-06T00:38:29;5.38;;;1.80;;
64959;SDS011;51487;52.266;10.542;2022-07-06T00:40:55;3.17;;;1.42;;
64959;SDS011;51487;52.266;10.542;2022-07-06T00:43:20;5.35;;;1.75;;
64959;SDS011;51487;52.266;10.542;2022-07-06T00:45:46;4.28;;;1.30;;
64959;SDS011;51487;52.266;10.542;2022-07-06T00:48:12;3.47;;;1.35;;
64959;SDS011;51487;52.266;10.542;2022-07-06T00:50:38;4.30;;;1.13;;
64959;SDS011;51487;52.266;10.542;2022-07-06T00:53:05;4.00;;;1.33;;
64959;SDS011;51487;52.266;10.542;2022-07-06T00:55:34;2.65;;;1.50;;
64959;SDS011;51487;52.266;10.542;2022-07-06T00:58:05;3.42;;;1.55;;
64959;SDS011;51487;52.266;10.542;2022-07-06T01:00:33;3.47;;;1.50;;
64959;SDS011;51487;52.266;10.542;2022-07-06T01:03:01;4.07;;;1.30;;
64959;SDS011;51487;52.266;10.542;2022-07-06T01:05:27;4.90;;;1.70;;
64959;SDS011;51487;52.266;10.542;2022-07-06T01:07:53;5.15;;;1.65;;
64959;SDS011;51487;52.266;10.542;2022-07-06T01:10:20;6.72;;;1.30;;
64959;SDS011;51487;52.266;10.542;2022-07-06T01:12:48;9.30;;;1.50;;
64959;SDS011;51487;52.266;10.542;2022-07-06T01:15:15;2.85;;;1.15;;
64959;SDS011;51487;52.266;10.542;2022-07-06T01:17:44;5.60;;;1.50;;
64959;SDS011;51487;52.266;10.542;2022-07-06T01:22:40;3.50;;;1.38;;
64959;SDS011;51487;52.266;10.542;2022-07-06T01:25:06;4.10;;;1.55;;
64959;SDS011;51487;52.266;10.542;2022-07-06T01:27:34;2.63;;;1.27;;
64959;SDS011;51487;52.266;10.542;2022-07-06T01:30:04;7.85;;;1.70;;
64959;SDS011;51487;52.266;10.542;2022-07-06T01:32:39;4.10;;;1.20;;
64959;SDS011;51487;52.266;10.542;2022-07-06T01:35:05;4.68;;;1.40;;
64959;SDS011;51487;52.266;10.542;2022-07-06T01:37:33;5.40;;;1.67;;
64959;SDS011;51487;52.266;10.542;2022-07-06T01:40:00;2.63;;;1.27;;
64959;SDS011;51487;52.266;10.542;2022-07-06T01:42:27;10.35;;;2.15;;
64959;SDS011;51487;52.266;10.542;2022-07-06T01:44:53;5.05;;;1.80;;
64959;SDS011;51487;52.266;10.542;2022-07-06T01:47:19;5.38;;;1.75;;
64959;SDS011;51487;52.266;10.542;2022-07-06T01:49:45;6.63;;;2.45;;
64959;SDS011;51487;52.266;10.542;2022-07-06T01:52:11;5.70;;;1.60;;
64959;SDS011;51487;52.266;10.542;2022-07-06T01:54:36;5.82;;;1.80;;
64959;SDS011;51487;52.266;10.542;2022-07-06T01:57:02;4.10;;;1.30;;
64959;SDS011;51487;52.266;10.542;2022-07-06T01:59:28;2.85;;;1.52;;
64959;SDS011;51487;52.266;10.542;2022-07-06T02:01:54;4.13;;;1.77;;
64959;SDS011;51487;52.266;10.542;2022-07-06T02:04:19;3.35;;;1.50;;
64959;SDS011;51487;52.266;10.542;2022-07-06T02:06:45;3.17;;;1.40;;
64959;SDS011;51487;52.266;10.542;2022-07-06T02:09:10;5.32;;;1.45;;
64959;SDS011;51487;52.266;10.542;2022-07-06T02:11:36;5.05;;;1.45;;
64959;SDS011;51487;52.266;10.542;2022-07-06T02:14:02;5.05;;;1.65;;
64959;SDS011;51487;52.266;10.542;2022-07-06T02:16:27;3.85;;;1.40;;
64959;SDS011;51487;52.266;10.542;2022-07-06T02:18:53;3.92;;;1.70;;
64959;SDS011;51487;52.266;10.542;2022-07-06T02:21:18;3.28;;;1.27;;
64959;SDS011;51487;52.266;10.542;2022-07-06T02:23:44;3.78;;;1.67;;
64959;SDS011;51487;52.266;10.542;2022-07-06T02:26:09;3.95;;;1.25;;
64959;SDS011;51487;52.266;10.542;2022-07-06T02:28:35;2.00;;;1.40;;
64959;SDS011;51487;52.266;10.542;2022-07-06T02:31:00;4.07;;;1.30;;
64959;SDS011;51487;52.266;10.542;2022-07-06T02:33:26;4.35;;;1.65;;
64959;SDS011;51487;52.266;10.542;2022-07-06T02:35:52;3.17;;;1.33;;
64959;SDS011;51487;52.266;10.542;2022-07-06T02:38:17;4.45;;;1.30;;
64959;SDS011;51487;52.266;10.542;2022-07-06T02:40:43;4.20;;;1.58;;
64959;SDS011;51487;52.266;10.542;2022-07-06T02:43:09;3.53;;;1.33;;
64959;SDS011;51487;52.266;10.542;2022-07-06T02:45:34;4.35;;;1.60;;
64959;SDS011;51487;52.266;10.542;2022-07-06T02:48:00;4.93;;;1.48;;
64959;SDS011;51487;52.266;10.542;2022-07-06T02:50:26;6.63;;;1.38;;
64959;SDS011;51487;52.266;10.542;2022-07-06T02:52:52;4.93;;;1.30;;
64959;SDS011;51487;52.266;10.542;2022-07-06T02:55:17;3.35;;;1.10;;
64959;SDS011;51487;52.266;10.542;2022-07-06T02:57:43;3.53;;;1.30;;
64959;SDS011;51487;52.266;10.542;2022-07-06T03:00:08;4.43;;;1.35;;
64959;SDS011;51487;52.266;10.542;2022-07-06T03:02:35;3.90;;;1.55;;
64959;SDS011;51487;52.266;10.542;2022-07-06T03:05:02;3.80;;;1.33;;
64959;SDS011;51487;52.266;10.542;2022-07-06T03:07:28;3.15;;;1.45;;
64959;SDS011;51487;52.266;10.542;2022-07-06T03:09:53;2.25;;;1.30;;
64959;SDS011;51487;52.266;10.542;2022-07-06T03:12:19;2.63;;;1.40;;
64959;SDS011;51487;52.266;10.542;2022-07-06T03:14:44;5.75;;;1.48;;
64959;SDS011;51487;52.266;10.542;2022-07-06T03:17:10;6.28;;;1.20;;
64959;SDS011;51487;52.266;10.542;2022-07-06T03:19:36;3.80;;;1.45;;
64959;SDS011;51487;52.266;10.542;2022-07-06T03:22:02;4.70;;;1.50;;
64959;SDS011;51487;52.266;10.542;2022-07-06T03:24:27;3.50;;;1.27;;
64959;SDS011;51487;52.266;10.542;2022-07-06T03:26:53;6.45;;;1.45;;
64959;SDS011;51487;52.266;10.542;2022-07-06T03:29:19;5.75;;;1.60;;
64959;SDS011;51487;52.266;10.542;2022-07-06T03:31:45;3.88;;;1.40;;
64959;SDS011;51487;52.266;10.542;2022-07-06T03:34:11;4.20;;;1.35;;
64959;SDS011;51487;52.266;10.542;2022-07-06T03:36:37;3.20;;;1.25;;
64959;SDS011;51487;52.266;10.542;2022-07-06T03:39:03;1.88;;;1.38;;
64959;SDS011;51487;52.266;10.542;2022-07-06T03:41:28;2.58;;;1.27;;
64959;SDS011;51487;52.266;10.542;2022-07-06T03:43:54;2.95;;;1.25;;
64959;SDS011;51487;52.266;10.542;2022-07-06T03:46:20;5.28;;;1.30;;
64959;SDS011;51487;52.266;10.542;2022-07-06T03:48:45;2.10;;;1.35;;
64959;SDS011;51487;52.266;10.542;2022-07-06T03:51:11;3.33;;;1.20;;
64959;SDS011;51487;52.266;10.542;2022-07-06T03:53:37;2.85;;;1.15;;
64959;SDS011;51487;52.266;10.542;2022-07-06T03:56:03;5.50;;;1.40;;
64959;SDS011;51487;52.266;10.542;2022-07-06T03:58:47;6.72;;;1.58;;
64959;SDS011;51487;52.266;10.542;2022-07-06T04:01:13;3.65;;;1.33;;
64959;SDS011;51487;52.266;10.542;2022-07-06T04:03:38;2.53;;;1.10;;
64959;SDS011;51487;52.266;10.542;2022-07-06T04:06:04;3.45;;;1.30;;
64959;SDS011;51487;52.266;10.542;2022-07-06T04:08:30;6.65;;;1.35;;
64959;SDS011;51487;52.266;10.542;2022-07-06T04:10:55;2.65;;;1.20;;
64959;SDS011;51487;52.266;10.542;2022-07-06T04:13:21;4.18;;;1.52;;
64959;SDS011;51487;52.266;10.542;2022-07-06T04:15:47;3.05;;;1.30;;
64959;SDS011;51487;52.266;10.542;2022-07-06T04:18:12;3.03;;;1.20;;
64959;SDS011;51487;52.266;10.542;2022-07-06T04:20:38;4.45;;;1.40;;
64959;SDS011;51487;52.266;10.542;2022-07-06T04:23:04;6.72;;;1.40;;
64959;SDS011;51487;52.266;10.542;2022-07-06T04:25:29;4.13;;;1.50;;
64959;SDS011;51487;52.266;10.542;2022-07-06T04:27:55;5.55;;;1.40;;
64959;SDS011;51487;52.266;10.542;2022-07-06T04:30:21;5.78;;;1.80;;
64959;SDS011;51487;52.266;10.542;2022-07-06T04:32:46;2.13;;;1.30;;
64959;SDS011;51487;52.266;10.542;2022-07-06T04:35:12;4.57;;;1.40;;
64959;SDS011;51487;52.266;10.542;2022-07-06T04:37:37;3.30;;;1.25;;
64959;SDS011;51487;52.266;10.542;2022-07-06T04:40:03;6.85;;;1.30;;
64959;SDS011;51487;52.266;10.542;2022-07-06T04:42:29;5.20;;;1.52;;
64959;SDS011;51487;52.266;10.542;2022-07-06T04:44:56;4.57;;;1.42;;
64959;SDS011;51487;52.266;10.542;2022-07-06T04:47:21;3.00;;;1.40;;
64959;SDS011;51487;52.266;10.542;2022-07-06T04:49:47;3.58;;;1.20;;
64959;SDS011;51487;52.266;10.542;2022-07-06T04:52:13;4.50;;;1.42;;
64959;SDS011;51487;52.266;10.542;2022-07-06T04:54:39;3.45;;;1.45;;
64959;SDS011;51487;52.266;10.542;2022-07-06T04:57:04;3.95;;;1.50;;
64959;SDS011;51487;52.266;10.542;2022-07-06T04:59:30;6.97;;;1.70;;
64959;SDS011;51487;52.266;10.542;2022-07-06T05:01:56;2.45;;;1.40;;
64959;SDS011;51487;52.266;10.542;2022-07-06T05:04:21;3.80;;;1.90;;
64959;SDS011;51487;52.266;10.542;2022-07-06T05:06:48;2.42;;;1.30;;
64959;SDS011;51487;52.266;10.542;2022-07-06T05:09:14;3.40;;;1.35;;
64959;SDS011;51487;52.266;10.542;2022-07-06T05:11:39;8.13;;;1.80;;
64959;SDS011;51487;52.266;10.542;2022-07-06T05:14:05;7.30;;;1.70;;
64959;SDS011;51487;52.266;10.542;2022-07-06T05:16:31;5.97;;;1.90;;
64959;SDS011;51487;52.266;10.542;2022-07-06T05:18:58;6.90;;;1.80;;
64959;SDS011;51487;52.266;10.542;2022-07-06T05:21:23;3.47;;;1.52;;
64959;SDS011;51487;52.266;10.542;2022-07-06T05:23:49;5.70;;;1.50;;
64959;SDS011;51487;52.266;10.542;2022-07-06T05:26:15;6.88;;;1.45;;
64959;SDS011;51487;52.266;10.542;2022-07-06T05:28:41;3.13;;;1.33;;
64959;SDS011;51487;52.266;10.542;2022-07-06T05:31:06;5.70;;;1.67;;
64959;SDS011;51487;52.266;10.542;2022-07-06T05:33:32;4.65;;;1.65;;
64959;SDS011;51487;52.266;10.542;2022-07-06T05:35:57;3.28;;;1.30;;
64959;SDS011;51487;52.266;10.542;2022-07-06T05:38:23;3.47;;;1.35;;
64959;SDS011;51487;52.266;10.542;2022-07-06T05:40:49;6.07;;;1.45;;
64959;SDS011;51487;52.266;10.542;2022-07-06T05:43:15;5.90;;;1.52;;
64959;SDS011;51487;52.266;10.542;2022-07-06T05:45:41;5.18;;;1.80;;
64959;SDS011;51487;52.266;10.542;2022-07-06T05:48:06;6.68;;;1.70;;
64959;SDS011;51487;52.266;10.542;2022-07-06T05:50:50;3.67;;;1.38;;
64959;SDS011;51487;52.266;10.542;2022-07-06T05:53:16;6.18;;;1.50;;
64959;SDS011;51487;52.266;10.542;2022-07-06T05:55:41;4.03;;;1.50;;
64959;SDS011;51487;52.266;10.542;2022-07-06T05:58:07;5.20;;;1.52;;
64959;SDS011;51487;52.266;10.542;2022-07-06T06:00:33;4.93;;;1.67;;
64959;SDS011;51487;52.266;10.542;2022-07-06T06:02:58;6.78;;;1.85;;
64959;SDS011;51487;52.266;10.542;2022-07-06T06:05:25;5.80;;;1.65;;
64959;SDS011;51487;52.266;10.542;2022-07-06T06:07:51;4.70;;;1.30;;
64959;SDS011;51487;52.266;10.542;2022-07-06T06:10:17;4.53;;;1.60;;
64959;SDS011;51487;52.266;10.542;2022-07-06T06:12:45;5.40;;;1.48;;
64959;SDS011;51487;52.266;10.542;2022-07-06T06:15:11;4.93;;;1.60;;
64959;SDS011;51487;52.266;10.542;2022-07-06T06:17:37;7.70;;;1.60;;
64959;SDS011;51487;52.266;10.542;2022-07-06T06:20:08;7.03;;;1.65;;
64959;SDS011;51487;52.266;10.542;2022-07-06T06:23:11;6.00;;;1.60;;
64959;SDS011;51487;52.266;10.542;2022-07-06T06:25:33;6.60;;;1.33;;
64959;SDS011;51487;52.266;10.542;2022-07-06T06:28:02;5.57;;;1.70;;
64959;SDS011;51487;52.266;10.542;2022-07-06T06:30:33;7.13;;;1.50;;
64959;SDS011;51487;52.266;10.542;2022-07-06T06:35:44;5.05;;;1.63;;
64959;SDS011;51487;52.266;10.542;2022-07-06T06:38:12;7.00;;;1.77;;
64959;SDS011;51487;52.266;10.542;2022-07-06T06:40:39;4.85;;;1.40;;
64959;SDS011;51487;52.266;10.542;2022-07-06T06:43:05;6.15;;;1.55;;
64959;SDS011;51487;52.266;10.542;2022-07-06T06:45:31;3.15;;;1.33;;
64959;SDS011;51487;52.266;10.542;2022-07-06T06:47:57;6.65;;;1.50;;
64959;SDS011;51487;52.266;10.542;2022-07-06T06:50:23;4.13;;;1.33;;
64959;SDS011;51487;52.266;10.542;2022-07-06T06:52:49;4.38;;;1.35;;
64959;SDS011;51487;52.266;10.542;2022-07-06T06:55:15;5.03;;;1.50;;
64959;SDS011;51487;52.266;10.542;2022-07-06T06:57:42;4.65;;;1.25;;
64959;SDS011;51487;52.266;10.542;2022-07-06T07:00:08;4.95;;;1.60;;
64959;SDS011;51487;52.266;10.542;2022-07-06T07:02:34;7.00;;;1.58;;
64959;SDS011;51487;52.266;10.542;2022-07-06T07:05:00;5.30;;;1.50;;
64959;SDS011;51487;52.266;10.542;2022-07-06T07:07:25;6.70;;;1.30;;
64959;SDS011;51487;52.266;10.542;2022-07-06T07:09:51;4.25;;;1.20;;
64959;SDS011;51487;52.266;10.542;2022-07-06T07:12:17;4.72;;;1.17;;
64959;SDS011;51487;52.266;10.542;2022-07-06T07:14:42;4.18;;;1.20;;
64959;SDS011;51487;52.266;10.542;2022-07-06T07:17:09;3.85;;;1.20;;
64959;SDS011;51487;52.266;10.542;2022-07-06T07:19:36;5.47;;;1.25;;
64959;SDS011;51487;52.266;10.542;2022-07-06T07:22:02;3.58;;;1.15;;
64959;SDS011;51487;52.266;10.542;2022-07-06T07:24:28;6.22;;;1.38;;
64959;SDS011;51487;52.266;10.542;2022-07-06T07:26:54;4.85;;;1.42;;
64959;SDS011;51487;52.266;10.542;2022-07-06T07:29:20;6.22;;;1.52;;
64959;SDS011;51487;52.266;10.542;2022-07-06T07:31:46;4.45;;;1.48;;
64959;SDS011;51487;52.266;10.542;2022-07-06T07:34:11;5.13;;;1.40;;
64959;SDS011;51487;52.266;10.542;2022-07-06T07:36:37;3.97;;;1.45;;
64959;SDS011;51487;52.266;10.542;2022-07-06T07:39:03;4.07;;;1.20;;
64959;SDS011;51487;52.266;10.542;2022-07-06T07:41:29;6.57;;;1.55;;
64959;SDS011;51487;52.266;10.542;2022-07-06T07:43:55;5.10;;;1.15;;
64959;SDS011;51487;52.266;10.542;2022-07-06T07:46:21;3.92;;;1.20;;
64959;SDS011;51487;52.266;10.542;2022-07-06T07:48:47;3.15;;;1.10;;
64959;SDS011;51487;52.266;10.542;2022-07-06T07:51:12;3.05;;;1.33;;
64959;SDS011;51487;52.266;10.542;2022-07-06T07:53:38;6.05;;;1.27;;
64959;SDS011;51487;52.266;10.542;2022-07-06T07:56:04;8.52;;;1.20;;
64959;SDS011;51487;52.266;10.542;2022-07-06T07:58:30;4.68;;;1.25;;
64959;SDS011;51487;52.266;10.542;2022-07-06T08:00:56;6.25;;;1.25;;
64959;SDS011;51487;52.266;10.542;2022-07-06T08:03:21;3.35;;;1.10;;
64959;SDS011;51487;52.266;10.542;2022-07-06T08:05:47;9.10;;;1.33;;
64959;SDS011;51487;52.266;10.542;2022-07-06T08:08:13;2.97;;;1.20;;
64959;SDS011;51487;52.266;10.542;2022-07-06T08:10:39;3.95;;;1.10;;
64959;SDS011;51487;52.266;10.542;2022-07-06T08:13:05;10.93;;;1.48;;
64959;SDS011;51487;52.266;10.542;2022-07-06T08:15:32;1.65;;;0.77;;
64959;SDS011;51487;52.266;10.542;2022-07-06T08:17:59;3.08;;;1.17;;
64959;SDS011;51487;52.266;10.542;2022-07-06T08:20:25;3.60;;;1.52;;
64959;SDS011;51487;52.266;10.542;2022-07-06T08:22:50;2.38;;;0.93;;
64959;SDS011;51487;52.266;10.542;2022-07-06T08:25:16;4.15;;;1.33;;
64959;SDS011;51487;52.266;10.542;2022-07-06T08:27:42;4.50;;;1.13;;
64959;SDS011;51487;52.266;10.542;2022-07-06T08:30:08;4.75;;;1.30;;
64959;SDS011;51487;52.266;10.542;2022-07-06T08:32:39;2.95;;;1.00;;
64959;SDS011;51487;52.266;10.542;2022-07-06T08:35:06;3.97;;;1.40;;
64959;SDS011;51487;52.266;10.542;2022-07-06T08:37:33;1.85;;;0.90;;
64959;SDS011;51487;52.266;10.542;2022-07-06T08:39:59;5.13;;;1.23;;
64959;SDS011;51487;52.266;10.542;2022-07-06T08:42:26;3.35;;;1.00;;
64959;SDS011;51487;52.266;10.542;2022-07-06T08:44:58;6.13;;;1.10;;
64959;SDS011;51487;52.266;10.542;2022-07-06T08:47:26;3.17;;;1.02;;
64959;SDS011;51487;52.266;10.542;2022-07-06T08:49:53;2.65;;;0.88;;
64959;SDS011;51487;52.266;10.542;2022-07-06T08:52:19;5.28;;;1.00;;
64959;SDS011;51487;52.266;10.542;2022-07-06T08:54:47;2.88;;;1.10;;
64959;SDS011;51487;52.266;10.542;2022-07-06T08:57:12;1.65;;;0.90;;
64959;SDS011;51487;52.266;10.542;2022-07-06T08:59:39;1.98;;;0.82;;
64959;SDS011;51487;52.266;10.542;2022-07-06T09:02:05;2.17;;;0.70;;
64959;SDS011;51487;52.266;10.542;2022-07-06T09:04:34;4.85;;;1.05;;
64959;SDS011;51487;52.266;10.542;2022-07-06T09:07:01;3.08;;;1.10;;
64959;SDS011;51487;52.266;10.542;2022-07-06T09:09:28;3.65;;;1.15;;
64959;SDS011;51487;52.266;10.542;2022-07-06T09:11:58;6.93;;;1.40;;
64959;SDS011;51487;52.266;10.542;2022-07-06T09:14:24;3.92;;;1.30;;
64959;SDS011;51487;52.266;10.542;2022-07-06T09:17:03;9.60;;;1.38;;
64959;SDS011;51487;52.266;10.542;2022-07-06T09:19:32;5.78;;;1.33;;
64959;SDS011;51487;52.266;10.542;2022-07-06T09:22:00;4.00;;;1.23;;
64959;SDS011;51487;52.266;10.542;2022-07-06T09:24:27;7.90;;;1.30;;
64959;SDS011;51487;52.266;10.542;2022-07-06T09:26:56;1.05;;;0.73;;
64959;SDS011;51487;52.266;10.542;2022-07-06T09:29:32;6.18;;;1.10;;
64959;SDS011;51487;52.266;10.542;2022-07-06T09:31:58;6.28;;;1.00;;
64959;SDS011;51487;52.266;10.542;2022-07-06T09:34:43;3.63;;;1.00;;
64959;SDS011;51487;52.266;10.542;2022-07-06T09:37:10;3.13;;;0.88;;
64959;SDS011;51487;52.266;10.542;2022-07-06T09:39:37;2.20;;;0.80;;
64959;SDS011;51487;52.266;10.542;2022-07-06T09:42:03;5.28;;;1.08;;
64959;SDS011;51487;52.266;10.542;2022-07-06T09:44:38;2.63;;;1.23;;
64959;SDS011;51487;52.266;10.542;2022-07-06T09:47:06;4.78;;;1.00;;
64959;SDS011;51487;52.266;10.542;2022-07-06T09:49:35;3.88;;;1.40;;
64959;SDS011;51487;52.266;10.542;2022-07-06T09:52:05;4.22;;;0.68;;
64959;SDS011;51487;52.266;10.542;2022-07-06T09:54:34;1.67;;;1.00;;
64959;SDS011;51487;52.266;10.542;2022-07-06T09:57:01;2.03;;;0.70;;
64959;SDS011;51487;52.266;10.542;2022-07-06T09:59:28;4.18;;;1.17;;
64959;SDS011;51487;52.266;10.542;2022-07-06T10:01:59;3.03;;;1.08;;
64959;SDS011;51487;52.266;10.542;2022-07-06T10:04:30;4.97;;;0.95;;
64959;SDS011;51487;52.266;10.542;2022-07-06T10:06:56;2.08;;;1.10;;
64959;SDS011;51487;52.266;10.542;2022-07-06T10:09:24;2.05;;;0.70;;
64959;SDS011;51487;52.266;10.542;2022-07-06T10:11:53;3.85;;;1.00;;
64959;SDS011;51487;52.266;10.542;2022-07-06T10:14:29;3.15;;;0.85;;
64959;SDS011;51487;52.266;10.542;2022-07-06T10:16:59;2.13;;;0.88;;
64959;SDS011;51487;52.266;10.542;2022-07-06T10:19:27;2.63;;;0.90;;
64959;SDS011;51487;52.266;10.542;2022-07-06T10:21:56;1.90;;;0.80;;
64959;SDS011;51487;52.266;10.542;2022-07-06T10:24:27;2.28;;;0.93;;
64959;SDS011;51487;52.266;10.542;2022-07-06T10:26:55;4.47;;;1.20;;
64959;SDS011;51487;52.266;10.542;2022-07-06T10:29:21;7.90;;;1.50;;
64959;SDS011;51487;52.266;10.542;2022-07-06T10:31:47;4.30;;;1.10;;
64959;SDS011;51487;52.266;10.542;2022-07-06T10:34:17;1.92;;;0.90;;
64959;SDS011;51487;52.266;10.542;2022-07-06T10:36:48;2.35;;;1.10;;
64959;SDS011;51487;52.266;10.542;2022-07-06T10:39:16;1.42;;;0.77;;
64959;SDS011;51487;52.266;10.542;2022-07-06T10:50:36;3.45;;;0.90;;
64959;SDS011;51487;52.266;10.542;2022-07-06T10:53:03;5.22;;;1.20;;
64959;SDS011;51487;52.266;10.542;2022-07-06T10:55:37;2.28;;;0.90;;
64959;SDS011;51487;52.266;10.542;2022-07-06T10:58:05;2.50;;;0.90;;
64959;SDS011;51487;52.266;10.542;2022-07-06T11:00:51;3.92;;;0.88;;
64959;SDS011;51487;52.266;10.542;2022-07-06T11:06:17;4.40;;;0.95;;
64959;SDS011;51487;52.266;10.542;2022-07-06T11:11:15;2.72;;;0.88;;
64959;SDS011;51487;52.266;10.542;2022-07-06T11:16:34;3.47;;;1.10;;
64959;SDS011;51487;52.266;10.542;2022-07-06T11:24:15;4.68;;;0.80;;
64959;SDS011;51487;52.266;10.542;2022-07-06T11:26:48;2.08;;;0.60;;
64959;SDS011;51487;52.266;10.542;2022-07-06T11:29:16;5.50;;;0.80;;
64959;SDS011;51487;52.266;10.542;2022-07-06T11:31:46;3.50;;;0.90;;
64959;SDS011;51487;52.266;10.542;2022-07-06T11:34:17;1.70;;;0.73;;
64959;SDS011;51487;52.266;10.542;2022-07-06T11:39:44;2.08;;;0.90;;
64959;SDS011;51487;52.266;10.542;2022-07-06T11:42:13;2.03;;;1.13;;
64959;SDS011;51487;52.266;10.542;2022-07-06T11:44:43;3.38;;;1.00;;
64959;SDS011;51487;52.266;10.542;2022-07-06T11:47:10;3.55;;;1.00;;
64959;SDS011;51487;52.266;10.542;2022-07-06T11:49:38;3.22;;;0.73;;
64959;SDS011;51487;52.266;10.542;2022-07-06T11:52:12;3.20;;;1.15;;
64959;SDS011;51487;52.266;10.542;2022-07-06T11:54:39;2.05;;;0.80;;
64959;SDS011;51487;52.266;10.542;2022-07-06T11:57:10;1.45;;;0.73;;
64959;SDS011;51487;52.266;10.542;2022-07-06T11:59:37;3.90;;;0.77;;
64959;SDS011;51487;52.266;10.542;2022-07-06T12:04:35;2.25;;;0.82;;
64959;SDS011;51487;52.266;10.542;2022-07-06T12:07:09;2.33;;;0.70;;
64959;SDS011;51487;52.266;10.542;2022-07-06T12:09:41;1.17;;;0.73;;
64959;SDS011;51487;52.266;10.542;2022-07-06T12:12:09;2.05;;;0.80;;
64959;SDS011;51487;52.266;10.542;2022-07-06T12:14:37;2.53;;;0.73;;
64959;SDS011;51487;52.266;10.542;2022-07-06T12:17:05;3.13;;;0.80;;
64959;SDS011;51487;52.266;10.542;2022-07-06T12:19:38;2.35;;;1.00;;
64959;SDS011;51487;52.266;10.542;2022-07-06T12:22:06;2.85;;;0.82;;
64959;SDS011;51487;52.266;10.542;2022-07-06T12:24:33;3.67;;;0.73;;
64959;SDS011;51487;52.266;10.542;2022-07-06T12:29:42;3.03;;;1.00;;
64959;SDS011;51487;52.266;10.542;2022-07-06T12:32:18;1.95;;;0.80;;
64959;SDS011;51487;52.266;10.542;2022-07-06T12:34:47;3.60;;;1.08;;
64959;SDS011;51487;52.266;10.542;2022-07-06T12:37:27;9.45;;;1.20;;
64959;SDS011;51487;52.266;10.542;2022-07-06T12:39:53;2.65;;;0.93;;
64959;SDS011;51487;52.266;10.542;2022-07-06T12:42:19;4.43;;;1.10;;
64959;SDS011;51487;52.266;10.542;2022-07-06T12:44:48;5.32;;;0.95;;
64959;SDS011;51487;52.266;10.542;2022-07-06T12:47:17;3.83;;;1.08;;
64959;SDS011;51487;52.266;10.542;2022-07-06T12:50:03;3.58;;;0.85;;
64959;SDS011;51487;52.266;10.542;2022-07-06T12:52:34;2.70;;;0.93;;
64959;SDS011;51487;52.266;10.542;2022-07-06T12:55:01;2.45;;;1.02;;
64959;SDS011;51487;52.266;10.542;2022-07-06T12:57:41;4.15;;;1.17;;
64959;SDS011;51487;52.266;10.542;2022-07-06T13:00:17;2.42;;;0.73;;
64959;SDS011;51487;52.266;10.542;2022-07-06T13:02:44;9.30;;;1.10;;
64959;SDS011;51487;52.266;10.542;2022-07-06T13:05:13;4.88;;;1.00;;
64959;SDS011;51487;52.266;10.542;2022-07-06T13:07:44;4.07;;;0.90;;
64959;SDS011;51487;52.266;10.542;2022-07-06T13:10:13;4.13;;;0.90;;
64959;SDS011;51487;52.266;10.542;2022-07-06T13:12:41;1.33;;;0.70;;
64959;SDS011;51487;52.266;10.542;2022-07-06T13:15:07;2.20;;;0.85;;
64959;SDS011;51487;52.266;10.542;2022-07-06T13:17:34;5.32;;;1.42;;
64959;SDS011;51487;52.266;10.542;2022-07-06T13:20:04;2.63;;;0.98;;
64959;SDS011;51487;52.266;10.542;2022-07-06T13:22:32;2.78;;;0.95;;
64959;SDS011;51487;52.266;10.542;2022-07-06T13:24:57;4.03;;;0.90;;
64959;SDS011;51487;52.266;10.542;2022-07-06T13:27:23;3.38;;;1.00;;
64959;SDS011;51487;52.266;10.542;2022-07-06T13:29:48;2.75;;;0.90;;
64959;SDS011;51487;52.266;10.542;2022-07-06T13:32:14;1.38;;;0.80;;
64959;SDS011;51487;52.266;10.542;2022-07-06T13:34:39;2.50;;;1.00;;
64959;SDS011;51487;52.266;10.542;2022-07-06T13:37:05;3.30;;;1.02;;
64959;SDS011;51487;52.266;10.542;2022-07-06T13:39:31;2.15;;;0.70;;
64959;SDS011;51487;52.266;10.542;2022-07-06T13:41:57;3.42;;;1.02;;
64959;SDS011;51487;52.266;10.542;2022-07-06T13:44:24;3.88;;;1.00;;
64959;SDS011;51487;52.266;10.542;2022-07-06T13:46:50;1.75;;;0.90;;
64959;SDS011;51487;52.266;10.542;2022-07-06T13:49:16;3.33;;;0.90;;
64959;SDS011;51487;52.266;10.542;2022-07-06T13:51:42;3.70;;;1.65;;
64959;SDS011;51487;52.266;10.542;2022-07-06T13:54:08;2.30;;;1.10;;
64959;SDS011;51487;52.266;10.542;2022-07-06T13:56:34;1.95;;;0.90;;
64959;SDS011;51487;52.266;10.542;2022-07-06T13:59:02;3.53;;;1.00;;
64959;SDS011;51487;52.266;10.542;2022-07-06T14:01:28;3.28;;;1.00;;
64959;SDS011;51487;52.266;10.542;2022-07-06T14:03:53;2.00;;;0.65;;
64959;SDS011;51487;52.266;10.542;2022-07-06T14:06:19;1.92;;;0.70;;
64959;SDS011;51487;52.266;10.542;2022-07-06T14:08:46;0.88;;;0.70;;
64959;SDS011;51487;52.266;10.542;2022-07-06T14:11:12;2.58;;;0.80;;
64959;SDS011;51487;52.266;10.542;2022-07-06T14:13:38;2.83;;;0.90;;
64959;SDS011;51487;52.266;10.542;2022-07-06T14:16:04;2.55;;;0.90;;
64959;SDS011;51487;52.266;10.542;2022-07-06T14:18:31;1.80;;;0.75;;
64959;SDS011;51487;52.266;10.542;2022-07-06T14:20:58;1.08;;;0.60;;
64959;SDS011;51487;52.266;10.542;2022-07-06T14:23:25;1.08;;;0.82;;
64959;SDS011;51487;52.266;10.542;2022-07-06T14:25:51;1.55;;;1.00;;
64959;SDS011;51487;52.266;10.542;2022-07-06T14:28:17;2.85;;;1.08;;
64959;SDS011;51487;52.266;10.542;2022-07-06T14:30:43;2.58;;;1.00;;
64959;SDS011;51487;52.266;10.542;2022-07-06T14:33:11;2.80;;;0.80;;
64959;SDS011;51487;52.266;10.542;2022-07-06T14:35:39;2.33;;;0.70;;
64959;SDS011;51487;52.266;10.542;2022-07-06T14:38:14;1.50;;;0.80;;
64959;SDS011;51487;52.266;10.542;2022-07-06T14:40:41;2.10;;;0.90;;
64959;SDS011;51487;52.266;10.542;2022-07-06T14:43:08;6.18;;;1.00;;
64959;SDS011;51487;52.266;10.542;2022-07-06T14:45:35;3.05;;;1.17;;
64959;SDS011;51487;52.266;10.542;2022-07-06T14:48:00;1.63;;;0.85;;
64959;SDS011;51487;52.266;10.542;2022-07-06T14:50:26;2.45;;;0.98;;
64959;SDS011;51487;52.266;10.542;2022-07-06T14:52:52;3.47;;;1.00;;
64959;SDS011;51487;52.266;10.542;2022-07-06T14:55:18;0.88;;;0.70;;
64959;SDS011;51487;52.266;10.542;2022-07-06T14:57:44;4.45;;;0.90;;
64959;SDS011;51487;52.266;10.542;2022-07-06T15:00:11;2.65;;;1.00;;
64959;SDS011;51487;52.266;10.542;2022-07-06T15:02:38;5.18;;;0.98;;
64959;SDS011;51487;52.266;10.542;2022-07-06T15:05:04;2.97;;;0.90;;
64959;SDS011;51487;52.266;10.542;2022-07-06T15:07:30;2.88;;;0.75;;
64959;SDS011;51487;52.266;10.542;2022-07-06T15:09:56;1.52;;;0.80;;